Aeroporto :
LOGIN :

Iscrizione | Disclaimer

   EN    FR    IT 

 










Sommario :    VFR   VFR Marginale   IFR   IFR Intensivo   IFR Molto Intensivo
Visibilità : 
Base nubi : 
>= 8 km
>= 3000ft
5 / 8 km
1000 / 3000 ft
1500m / 5 km
500 / 1000 ft
800 / 1500m
200 / 500 ft
< 800m
< 200 ft
Simboli :   Temporali  Nebbia  Neve Forte  Precipitazioni Forti  Vento > 20 kt
SIGMETs :   Varie  Temporali  Ghiacco  Turbolenza  Onda orograficha  Ceneri Vulcaniche






- Altitudine del aeroporto : 20 ft


EBFN - Koksijde

ULTIMO METAR :
  • 071825Z AUTO 19007KT 9999 BKN021/// 08/06 Q1014 WHT

METARs OBSOLETI :
  • 071755Z AUTO 20007KT 9999 BKN037/// 08/06 Q1014 BLU
  • 071725Z AUTO 20006KT 9999 SCT040/// 08/06 Q1015 BLU
  • 071655Z AUTO 20006KT 9999 OVC038/// 09/06 Q1015 BLU
  • 071625Z AUTO 20007KT 9999 OVC036/// 09/06 Q1015 BLU
  • 071555Z AUTO 22006KT 9999 OVC036/// 09/06 Q1015 BLU

TAF TAF EBFN
Valido dal 07 a 19 ore il 08 a 07 ore UTC


071541Z 0719/0807 21010KT 9999 FEW015 SCT025
BECMG 0800/0802 21015G25KT 9999 SCT012 BKN017
TEMPO 0804/0807 20018G30KT 4000 -RA/-DZ SCT008 BKN015



MetMap, La meteo Aeronautica in un colpo d'occhio ! - Copyright ORBIFLY Dicembre 2007 - Disclaimer

ORBIFLY MET'MAP TEAM :

Programmazione e sviluppo : Alexandra Zaïnal
Concezione : Baudouin d'Aumeries
Aiuto per la programmazione : Marc-Olivier Méhu
Supporto tecnico e logistico : Manuel Goepfert
Aiuto per la traduzione : Arnaldo La Scala

Contatto : metmap@orbifly.com




FONTI E CREDITI :

   NOAA